Torreon International Airport
MMTC : now visible

Airfield :











YOU CAN JOIN US ON...

 
LOGIN :

Register | Disclaimer

   EN    FR    IT 

 









Legend :    VFR   Marginal VFR   IFR   Intensive IFR   Very Intensive IFR
Visi :
Ceiling :
>= 8 km
>= 3000ft
5 to 8 km
1000 to 3000 ft
1500m to 5 km
500 to 1000 ft
800 to 1500m
200 to 500 ft
< 800m
< 200 ft
Symbols :   Thunderstorms  Fog  Heavy snow  Heavy precipitations  Wind > 20 kt






- Airport Elevation : 3688 ft
- IATA code : TRC


MMTC - Torreon International

CURRENT METAR :
  • 250044Z 00000KT 6SM BKN020 BKN100 BKN200 25/20 A3019 RMK 60035 8/463 LWR SC HZY

EXPIRED METARs :
  • 242343Z 00000KT 6SM -RA BKN020 BKN100 OVC200 24/20 A3019 RMK SLP137 57007 941 8/463 CB NE STN -RA INTMT
  • 242246Z 26006KT 6SM BKN015 BKN080 OVC200 24/21 A3020 RMK 8/463 ISOL TCU HZY
  • 242146Z 26008KT 5SM BKN015CB OVC080 24/22 A3021 RMK 60055 8/36/ -RAE38 BINOVC COND VRB
  • 242124Z 24007KT 4SM -RA BKN015CB OVC080 24/22 A3019 RMK 8/36/ RAE15
  • 242041Z 24008KT 2SM RA BKN015TCU OVC080 24/22 A3022 RMK SLP143 57011 940 60055 8/27/ -RAE20 RAB20 HZ
  • 242009Z 00000KT 4SM -RA BKN015 OVC080 25/20 A3022 RMK 8/17/ -RAB05
  • 241942Z 00000KT 6SM BKN015 OVC070 26/20 A3023 RMK 8/17/

TAF AMD TAF MMTC
Valid from the 24 at 21:00 until the 25 at 18:00 UTC


242126Z 2421/2518 24018KT 2SM RA BKN015CB OVC080
FM242216 23010KT P6SM BKN015CB OVC080
BECMG 2503/2504 00000KT 6SM HZ SCT020 BKN080
FM251500 03010KT 6SM HZ BKN020 OVC080
TEMPO 2515/2518 4SM RA VC CB
MMFR FIR / North America



MET'MAP, your aeronautical weather chart ! - Copyright ORBIFLY December 2007 - Disclaimer

ORBIFLY MET'MAP TEAM :

Programming & Development : Alexandra Zaïnal
Original concept : Baudouin d'Aumeries
Technical & hardware support : Manuel Goepfert
Assistance : Marc-Olivier Méhu




SOURCES & CREDITS :

   NOAA       Earth
Advisory